Time;durP1;ratioP1;P1;durP2;ratioP2;P2;SDS_P1;SDS_P2;PMS_P1;PMS_P2;Temp;Humidity;BMP_temperature;BMP_pressure;BME280_temperature;BME280_humidity;BME280_pressure;Samples;Min_cycle;Max_cycle;Signal;HPM_P1;HPM_P2
2022/02/01 00:03:44;;;;;;;6.18;2.30;;;17.30;45.90;;;;;;5036279;28;20066;-53
2022/02/01 00:06:19;;;;;;;5.43;1.80;;;17.20;45.90;;;;;;5036231;28;20044;-53
2022/02/01 00:08:53;;;;;;;5.10;1.73;;;17.20;45.90;;;;;;5036254;28;20013;-55
2022/02/01 00:11:38;;;;;;;3.47;1.65;;;17.20;45.90;;;;;;5035832;28;20495;-53
2022/02/01 00:19:50;;;;;;;4.25;1.88;;;17.20;46.00;;;;;;5028515;28;20029;-54
2022/02/01 00:33:35;;;;;;;3.95;1.70;;;17.20;46.10;;;;;;5034425;28;20084;-53
2022/02/01 00:36:07;;;;;;;4.38;1.67;;;17.10;46.00;;;;;;5035640;28;20022;-54
2022/02/01 00:38:46;;;;;;;4.50;1.60;;;17.10;46.00;;;;;;5034434;28;20021;-53
2022/02/01 00:41:15;;;;;;;3.50;1.52;;;17.10;46.10;;;;;;5035596;28;20021;-54
2022/02/01 00:43:46;;;;;;;3.97;1.63;;;17.10;46.00;;;;;;5035616;28;20041;-54
2022/02/01 00:46:12;;;;;;;3.10;1.75;;;17.10;46.70;;;;;;5035116;28;20014;-53
2022/02/01 00:48:38;;;;;;;3.65;1.80;;;17.10;46.10;;;;;;5035421;28;20555;-54
2022/02/01 00:51:04;;;;;;;3.58;1.45;;;17.10;46.10;;;;;;5034988;28;20057;-54
2022/02/01 00:53:31;;;;;;;3.85;1.60;;;17.10;46.10;;;;;;5035316;28;20045;-54
2022/02/01 00:55:58;;;;;;;3.88;1.80;;;17.10;46.10;;;;;;5034948;28;20027;-53
2022/02/01 00:58:24;;;;;;;2.85;1.33;;;17.00;46.10;;;;;;5035067;28;20021;-53
2022/02/01 01:00:50;;;;;;;3.83;1.60;;;17.10;46.10;;;;;;5035080;28;20005;-54
2022/02/01 01:03:16;;;;;;;3.67;1.60;;;17.00;46.00;;;;;;5035046;28;20018;-51
2022/02/01 01:05:42;;;;;;;4.25;1.77;;;17.10;46.10;;;;;;5033667;28;20511;-54
2022/02/01 01:08:08;;;;;;;3.97;1.50;;;17.00;46.10;;;;;;5035093;28;20048;-52
2022/02/01 01:10:34;;;;;;;3.42;1.38;;;17.00;46.10;;;;;;5035008;28;20129;-54
2022/02/01 01:16:18;;;;;;;4.10;1.70;;;17.00;46.10;;;;;;5035358;28;20179;-52
2022/02/01 01:53:48;;;;;;;3.22;1.50;;;16.90;46.00;;;;;;5034176;28;20184;-54
2022/02/01 01:56:13;;;;;;;3.58;1.60;;;16.90;46.00;;;;;;5034030;28;20029;-52
2022/02/01 01:58:40;;;;;;;5.55;1.55;;;16.90;46.10;;;;;;5033844;28;20017;-54
2022/02/01 02:01:13;;;;;;;3.95;1.63;;;16.90;46.10;;;;;;5033739;28;20492;-53
2022/02/01 02:03:45;;;;;;;3.83;1.58;;;16.90;46.10;;;;;;5033922;28;20033;-53
2022/02/01 02:06:12;;;;;;;4.45;1.30;;;16.80;46.00;;;;;;5033961;28;20084;-53
2022/02/01 02:08:39;;;;;;;3.20;1.23;;;16.80;46.00;;;;;;5033434;28;20488;-54
2022/02/01 02:11:10;;;;;;;2.72;1.35;;;16.90;46.10;;;;;;5033460;28;20096;-54
2022/02/01 02:16:21;;;;;;;3.30;1.52;;;16.80;46.00;;;;;;5033397;28;20118;-53
2022/02/01 02:18:47;;;;;;;3.33;1.40;;;16.80;45.90;;;;;;5033454;28;20020;-53
2022/02/01 02:21:14;;;;;;;2.47;1.27;;;16.80;46.50;;;;;;5033324;28;20472;-52
2022/02/01 02:23:40;;;;;;;3.05;1.40;;;16.80;46.00;;;;;;5033342;28;20481;-54
2022/02/01 02:26:11;;;;;;;3.28;1.60;;;16.80;46.00;;;;;;5033562;28;20028;-52
2022/02/01 02:28:37;;;;;;;3.60;1.30;;;16.80;46.00;;;;;;5032511;28;20017;-53
2022/02/01 02:31:03;;;;;;;4.68;1.30;;;16.80;46.00;;;;;;5033448;28;20515;-53
2022/02/01 02:33:31;;;;;;;3.53;1.88;;;16.80;45.90;;;;;;5035413;28;20036;-55
2022/02/01 02:36:04;;;;;;;3.17;1.40;;;16.80;46.00;;;;;;5035847;28;20085;-54
2022/02/01 02:46:33;;;;;;;3.28;1.48;;;16.70;46.00;;;;;;5033293;28;20092;-54
2022/02/01 02:48:59;;;;;;;2.47;1.17;;;16.70;45.90;;;;;;5033170;28;20029;-54
2022/02/01 02:51:28;;;;;;;6.00;1.40;;;16.70;45.90;;;;;;5033245;28;20018;-54
2022/02/01 02:54:12;;;;;;;2.03;1.23;;;16.70;45.90;;;;;;5032690;28;20164;-53
2022/02/01 02:56:43;;;;;;;3.03;1.50;;;16.70;45.90;;;;;;5032844;28;20021;-54
2022/02/01 02:59:09;;;;;;;3.70;1.73;;;16.70;45.90;;;;;;5032862;28;20033;-54
2022/02/01 03:01:34;;;;;;;3.20;1.42;;;16.70;45.90;;;;;;5032504;28;20014;-53
2022/02/01 03:04:00;;;;;;;4.35;1.10;;;16.70;45.90;;;;;;5032586;28;20518;-53
2022/02/01 03:06:26;;;;;;;2.65;1.17;;;16.70;45.90;;;;;;5032971;28;20061;-54
2022/02/01 03:08:51;;;;;;;2.92;1.35;;;16.70;45.90;;;;;;5032864;28;20020;-51
2022/02/01 03:11:17;;;;;;;2.15;1.25;;;16.70;45.90;;;;;;5031544;28;20388;-53
2022/02/01 03:13:49;;;;;;;3.72;1.40;;;16.70;45.90;;;;;;5031411;28;20034;-53
2022/02/01 03:16:28;;;;;;;2.90;1.30;;;16.70;45.90;;;;;;5032756;28;20072;-53
2022/02/01 03:21:39;;;;;;;3.70;1.35;;;16.70;45.80;;;;;;5033849;28;20110;-53
2022/02/01 03:24:05;;;;;;;2.15;1.20;;;16.70;45.80;;;;;;5036915;28;20021;-52
2022/02/01 03:26:31;;;;;;;3.03;1.15;;;16.60;45.80;;;;;;5036577;28;20053;-57
2022/02/01 03:28:58;;;;;;;2.85;1.33;;;16.60;45.80;;;;;;5036581;28;20095;-57
2022/02/01 03:31:24;;;;;;;2.83;1.50;;;16.60;45.80;;;;;;5036806;28;20018;-57
2022/02/01 03:33:50;;;;;;;4.47;1.35;;;16.60;45.80;;;;;;5036709;28;20022;-57
2022/02/01 03:36:17;;;;;;;3.53;1.52;;;16.60;45.80;;;;;;5036405;28;20018;-57
2022/02/01 03:38:43;;;;;;;3.17;1.27;;;16.60;45.70;;;;;;5035356;28;20017;-57
2022/02/01 03:41:08;;;;;;;2.42;1.25;;;16.60;45.70;;;;;;5036368;28;20498;-57
2022/02/01 03:43:34;;;;;;;2.70;1.33;;;16.60;45.70;;;;;;5036444;28;20017;-57
2022/02/01 03:46:01;;;;;;;2.58;1.27;;;16.60;45.70;;;;;;5036565;28;20041;-57
2022/02/01 03:48:27;;;;;;;2.97;1.35;;;16.60;45.80;;;;;;5036787;28;20030;-58
2022/02/01 03:50:53;;;;;;;3.03;1.42;;;16.60;45.70;;;;;;5036483;28;20045;-58
2022/02/01 03:53:20;;;;;;;2.75;1.30;;;16.60;45.70;;;;;;5036739;28;20021;-57
2022/02/01 03:55:46;;;;;;;2.85;1.30;;;16.60;45.70;;;;;;5036506;28;20030;-57
2022/02/01 03:58:11;;;;;;;3.78;1.38;;;16.60;45.70;;;;;;5036411;28;20032;-57
2022/02/01 04:00:38;;;;;;;2.25;1.33;;;16.50;45.60;;;;;;5036403;28;20037;-57
2022/02/01 04:03:04;;;;;;;4.15;1.30;;;16.50;45.60;;;;;;5035005;28;20024;-58
2022/02/01 04:05:31;;;;;;;2.65;1.17;;;16.50;45.90;;;;;;5036176;28;20036;-56
2022/02/01 04:07:57;;;;;;;2.50;0.98;;;16.50;45.50;;;;;;5036007;28;20041;-57
2022/02/01 04:10:22;;;;;;;3.60;1.38;;;16.50;45.60;;;;;;5034611;28;20506;-57
2022/02/01 04:12:50;;;;;;;3.65;1.50;;;16.50;45.60;;;;;;5018472;28;20071;-57
2022/02/01 04:15:19;;;;;;;2.78;1.33;;;16.50;45.60;;;;;;5035982;28;20026;-57
2022/02/01 04:17:45;;;;;;;4.72;1.92;;;16.50;45.60;;;;;;5035528;28;20060;-57
2022/02/01 04:20:11;;;;;;;2.05;1.02;;;16.50;45.60;;;;;;5035904;28;20018;-56
2022/02/01 04:22:37;;;;;;;2.92;1.40;;;16.50;45.60;;;;;;5035855;28;20468;-57
2022/02/01 04:25:04;;;;;;;2.67;1.20;;;16.50;45.60;;;;;;5035791;28;20021;-58
2022/02/01 04:30:05;;;;;;;3.05;1.20;;;16.50;45.60;;;;;;5035453;28;20030;-57
2022/02/01 04:32:31;;;;;;;2.60;1.20;;;16.50;45.60;;;;;;5035152;28;20126;-58
2022/02/01 04:34:59;;;;;;;2.83;1.23;;;16.50;45.60;;;;;;5035237;28;20021;-57
2022/02/01 04:37:28;;;;;;;2.50;1.33;;;16.50;45.60;;;;;;5034123;28;20460;-57
2022/02/01 04:40:01;;;;;;;2.35;1.20;;;16.50;45.60;;;;;;5035568;28;20037;-59
2022/02/01 04:42:30;;;;;;;3.38;1.40;;;16.50;45.60;;;;;;5035499;28;20014;-58
2022/02/01 04:44:58;;;;;;;2.28;1.38;;;16.50;45.60;;;;;;5035077;28;20021;-57
2022/02/01 04:47:29;;;;;;;3.42;1.27;;;16.50;45.50;;;;;;5035346;28;20021;-56
2022/02/01 04:49:55;;;;;;;2.13;1.10;;;16.60;45.30;;;;;;5035398;28;20017;-56
2022/02/01 04:52:21;;;;;;;2.63;1.13;;;16.70;44.90;;;;;;5034095;28;20464;-56
2022/02/01 04:54:47;;;;;;;2.72;1.20;;;16.80;44.70;;;;;;5034909;28;20468;-57
2022/02/01 04:57:13;;;;;;;2.17;1.10;;;16.80;44.70;;;;;;5034864;28;20066;-56
2022/02/01 04:59:40;;;;;;;2.78;1.05;;;16.80;44.60;;;;;;5035180;28;20022;-55
2022/02/01 05:02:07;;;;;;;2.70;1.25;;;16.80;44.60;;;;;;5035472;28;20017;-57
2022/02/01 05:04:33;;;;;;;2.67;1.05;;;16.90;44.60;;;;;;5034804;28;20143;-57
2022/02/01 05:07:00;;;;;;;2.05;1.00;;;16.90;44.50;;;;;;5035113;28;20079;-56
2022/02/01 05:09:26;;;;;;;2.60;1.35;;;17.00;44.40;;;;;;5035028;28;20025;-53
2022/02/01 05:11:54;;;;;;;2.67;1.15;;;17.00;44.10;;;;;;5034750;28;20018;-54
2022/02/01 05:14:24;;;;;;;2.70;1.40;;;17.20;44.00;;;;;;5034760;28;20492;-52
2022/02/01 05:21:59;;;;;;;4.30;1.20;;;17.40;43.30;;;;;;5035487;28;20095;-55
2022/02/01 05:24:25;;;;;;;2.83;1.10;;;17.50;43.10;;;;;;5035978;28;20020;-53
2022/02/01 05:26:54;;;;;;;3.10;1.55;;;17.60;42.90;;;;;;5036759;28;20025;-57
2022/02/01 05:29:19;;;;;;;3.70;1.30;;;17.70;42.80;;;;;;5035946;28;20027;-57
2022/02/01 05:31:45;;;;;;;4.20;1.23;;;17.80;42.60;;;;;;5035835;28;20081;-57
2022/02/01 05:34:11;;;;;;;1.95;1.00;;;17.90;42.40;;;;;;5034776;28;20468;-57
2022/02/01 05:36:37;;;;;;;2.00;1.15;;;18.00;42.20;;;;;;5018487;28;20018;-57
2022/02/01 05:39:11;;;;;;;1.98;0.90;;;18.00;42.10;;;;;;5035650;28;20053;-58
2022/02/01 05:41:39;;;;;;;2.20;1.10;;;18.10;42.50;;;;;;5035786;28;20020;-54
2022/02/01 05:44:05;;;;;;;3.22;1.35;;;18.20;41.80;;;;;;5035427;28;20097;-57
2022/02/01 05:46:31;;;;;;;2.38;1.20;;;18.30;41.60;;;;;;5035844;28;20163;-56
2022/02/01 05:48:57;;;;;;;2.35;1.17;;;18.40;41.50;;;;;;5034057;28;20017;-57
2022/02/01 05:51:23;;;;;;;2.00;1.33;;;18.40;41.30;;;;;;5034169;28;20047;-56
2022/02/01 05:53:49;;;;;;;2.25;1.27;;;18.50;41.10;;;;;;5032582;28;20499;-56
2022/02/01 05:56:15;;;;;;;3.15;1.27;;;18.60;40.90;;;;;;5033956;28;20028;-56
2022/02/01 05:58:42;;;;;;;3.05;1.40;;;18.70;40.90;;;;;;5034036;28;20018;-55
2022/02/01 06:01:08;;;;;;;2.35;1.15;;;18.80;40.70;;;;;;5033758;28;20025;-56
2022/02/01 06:03:37;;;;;;;2.35;1.15;;;18.80;40.50;;;;;;5033970;28;20041;-56
2022/02/01 06:06:03;;;;;;;2.90;1.33;;;18.90;40.40;;;;;;5033918;28;20021;-54
2022/02/01 06:08:29;;;;;;;2.03;1.00;;;19.00;40.30;;;;;;5033880;28;20083;-53
2022/02/01 06:10:54;;;;;;;2.83;1.17;;;19.00;40.10;;;;;;5033919;28;20014;-54
2022/02/01 06:13:21;;;;;;;3.08;1.20;;;19.10;40.00;;;;;;5033465;28;20018;-54
2022/02/01 06:15:47;;;;;;;2.75;1.15;;;19.10;39.90;;;;;;5033169;28;20068;-54
2022/02/01 06:18:12;;;;;;;2.13;1.25;;;19.20;39.80;;;;;;5033711;28;20017;-54
2022/02/01 06:20:38;;;;;;;2.13;1.10;;;19.30;39.80;;;;;;5033462;28;20040;-53
2022/02/01 06:23:14;;;;;;;2.97;1.23;;;19.30;39.60;;;;;;5032105;28;20049;-52
2022/02/01 06:25:50;;;;;;;2.40;1.10;;;19.40;39.50;;;;;;5033371;28;20036;-53
2022/02/01 06:28:20;;;;;;;2.47;1.20;;;19.50;39.50;;;;;;5033184;28;20033;-58
2022/02/01 06:30:46;;;;;;;2.13;1.05;;;19.50;39.30;;;;;;5033317;28;20014;-58
2022/02/01 06:33:12;;;;;;;2.38;1.10;;;19.60;39.30;;;;;;5032107;28;20388;-58
2022/02/01 06:35:38;;;;;;;3.30;1.30;;;19.60;39.20;;;;;;5033121;28;20387;-58
2022/02/01 06:38:04;;;;;;;2.05;1.10;;;19.70;39.00;;;;;;5031918;28;20357;-58
2022/02/01 06:40:30;;;;;;;3.10;1.27;;;19.80;39.00;;;;;;5033427;28;20012;-58
2022/02/01 06:42:56;;;;;;;3.10;1.40;;;19.80;38.80;;;;;;5031886;28;20499;-58
2022/02/01 06:45:22;;;;;;;1.45;0.90;;;19.90;38.80;;;;;;5031795;28;20018;-58
2022/02/01 06:47:49;;;;;;;2.58;1.17;;;19.90;38.70;;;;;;5031690;28;20507;-58
2022/02/01 06:50:19;;;;;;;4.18;1.40;;;20.00;38.60;;;;;;5032639;28;20033;-58
2022/02/01 06:52:46;;;;;;;2.80;1.35;;;20.10;38.60;;;;;;5015736;28;20026;-58
2022/02/01 06:55:13;;;;;;;5.00;1.13;;;20.10;39.00;;;;;;5031615;28;20017;-58
2022/02/01 06:57:39;;;;;;;2.00;1.08;;;20.10;38.40;;;;;;5032627;28;20077;-59
2022/02/01 07:00:08;;;;;;;3.13;1.48;;;20.20;38.40;;;;;;5033197;28;20025;-58
2022/02/01 07:02:34;;;;;;;3.30;1.00;;;20.30;38.30;;;;;;5032980;28;20016;-58
2022/02/01 07:05:00;;;;;;;1.58;0.80;;;20.30;38.20;;;;;;5032860;28;20469;-59
2022/02/01 07:07:26;;;;;;;2.63;1.13;;;20.30;38.10;;;;;;5031520;28;20053;-58
2022/02/01 07:09:52;;;;;;;2.47;1.17;;;20.40;38.10;;;;;;5032195;28;20164;-57
2022/02/01 07:12:18;;;;;;;2.17;1.15;;;20.40;38.00;;;;;;5032099;28;20017;-58
2022/02/01 07:14:44;;;;;;;2.15;1.05;;;20.50;37.90;;;;;;5032027;28;20029;-58
2022/02/01 07:17:10;;;;;;;2.67;1.10;;;20.50;37.80;;;;;;5014803;28;20119;-58
2022/02/01 07:19:36;;;;;;;2.08;1.10;;;20.60;37.80;;;;;;5031326;28;20022;-58
2022/02/01 07:22:03;;;;;;;2.25;1.02;;;20.70;37.80;;;;;;5030130;28;20391;-56
2022/02/01 07:24:35;;;;;;;1.80;1.08;;;20.70;37.70;;;;;;5030944;28;20057;-57
2022/02/01 07:27:09;;;;;;;2.97;1.27;;;20.80;37.60;;;;;;5031816;28;20021;-56
2022/02/01 07:29:37;;;;;;;2.05;1.15;;;20.80;37.60;;;;;;5032100;28;20025;-55
2022/02/01 07:32:04;;;;;;;1.58;1.00;;;20.90;37.50;;;;;;5031872;28;20014;-56
2022/02/01 07:34:29;;;;;;;2.67;1.20;;;20.90;37.40;;;;;;5030428;28;20041;-56
2022/02/01 07:36:55;;;;;;;2.63;1.20;;;20.90;37.40;;;;;;5031914;28;20044;-56
2022/02/01 07:39:21;;;;;;;1.70;1.00;;;21.00;37.40;;;;;;5031738;28;20018;-55
2022/02/01 07:41:49;;;;;;;1.67;1.00;;;21.00;37.30;;;;;;5030100;28;20105;-56
2022/02/01 07:44:15;;;;;;;1.75;1.00;;;21.10;37.30;;;;;;5030257;28;20014;-56
2022/02/01 07:46:46;;;;;;;2.10;0.90;;;21.10;37.30;;;;;;5031624;28;20063;-57
2022/02/01 07:49:17;;;;;;;2.28;1.13;;;21.10;37.20;;;;;;5030118;28;20043;-56
2022/02/01 07:51:43;;;;;;;1.85;1.00;;;21.20;37.10;;;;;;5031480;28;20026;-57
2022/02/01 07:54:09;;;;;;;2.58;1.05;;;21.20;37.10;;;;;;5031021;28;20034;-57
2022/02/01 07:56:36;;;;;;;2.05;0.90;;;21.20;37.00;;;;;;5029755;28;20014;-57
2022/02/01 07:59:01;;;;;;;3.58;1.20;;;21.30;37.10;;;;;;5031444;28;20017;-56
2022/02/01 08:01:27;;;;;;;2.63;1.08;;;21.30;37.00;;;;;;5031742;28;20020;-57
2022/02/01 08:03:52;;;;;;;1.65;0.80;;;21.40;37.00;;;;;;5031403;28;20368;-56
2022/02/01 08:06:19;;;;;;;2.88;1.17;;;21.40;36.90;;;;;;5031102;28;20445;-58
2022/02/01 08:08:45;;;;;;;2.97;1.20;;;21.40;36.90;;;;;;5032545;28;20037;-58
2022/02/01 08:11:14;;;;;;;5.28;1.65;;;21.50;36.90;;;;;;5033510;28;20063;-57
2022/02/01 08:16:33;;;;;;;15.35;3.10;;;16.50;46.10;;;;;;5035018;28;20038;-48
2022/02/01 08:21:29;;;;;;;10.77;4.00;;;13.40;57.10;;;;;;5033775;28;20014;-51
2022/02/01 08:23:58;;;;;;;13.30;3.55;;;13.00;59.40;;;;;;5034575;28;20014;-52
2022/02/01 08:26:27;;;;;;;12.23;3.30;;;12.60;61.00;;;;;;5034621;28;20025;-49
2022/02/01 08:28:53;;;;;;;8.70;2.88;;;12.60;61.50;;;;;;5034845;28;20041;-49
2022/02/01 08:31:18;;;;;;;10.45;3.38;;;12.20;62.60;;;;;;5034662;28;20337;-51
2022/02/01 08:33:45;;;;;;;10.73;3.00;;;11.90;64.00;;;;;;5033333;28;20017;-50
2022/02/01 08:36:11;;;;;;;8.45;2.92;;;11.90;64.10;;;;;;5034645;28;20028;-50
2022/02/01 08:38:38;;;;;;;8.05;3.00;;;11.80;65.00;;;;;;5034759;28;20029;-50
2022/02/01 08:41:03;;;;;;;9.15;2.85;;;11.70;65.60;;;;;;5035033;28;20016;-49
2022/02/01 08:43:31;;;;;;;8.75;3.15;;;11.80;65.50;;;;;;5034953;28;20468;-53
2022/02/01 08:45:56;;;;;;;8.55;2.80;;;11.80;65.50;;;;;;5034571;28;20052;-49
2022/02/01 08:48:22;;;;;;;8.13;2.72;;;11.80;65.40;;;;;;5034766;28;20017;-50
2022/02/01 08:50:48;;;;;;;11.45;3.45;;;11.70;65.90;;;;;;5033166;28;20105;-52
2022/02/01 08:53:18;;;;;;;5.65;2.53;;;11.70;66.30;;;;;;5033156;28;20030;-52
2022/02/01 08:58:19;;;;;;;8.23;2.90;;;12.10;65.20;;;;;;5033409;28;20021;-49
2022/02/01 09:00:45;;;;;;;6.32;3.03;;;11.70;66.30;;;;;;5034604;28;20079;-53
2022/02/01 09:03:13;;;;;;;6.82;2.55;;;11.80;67.00;;;;;;5032711;28;20345;-53
2022/02/01 09:05:45;;;;;;;10.27;2.50;;;11.90;67.00;;;;;;5033353;28;20014;-49
2022/02/01 09:08:11;;;;;;;6.28;2.50;;;12.30;64.10;;;;;;5034624;28;20018;-52
2022/02/01 09:10:36;;;;;;;7.07;2.90;;;12.00;66.30;;;;;;5033384;28;20020;-51
2022/02/01 09:13:03;;;;;;;9.25;3.05;;;12.10;63.90;;;;;;5034354;28;20025;-51
2022/02/01 09:15:29;;;;;;;5.53;2.45;;;11.70;66.00;;;;;;5032076;28;20030;-54
2022/02/01 09:17:59;;;;;;;7.90;3.00;;;10.90;69.20;;;;;;5032903;28;20036;-52
2022/02/01 09:20:25;;;;;;;6.32;2.90;;;10.70;71.00;;;;;;5033359;28;20071;-54
2022/02/01 09:22:51;;;;;;;6.60;2.92;;;10.70;71.00;;;;;;5033159;28;20049;-54
2022/02/01 09:25:18;;;;;;;8.43;2.85;;;10.70;71.60;;;;;;5033463;28;20461;-55
2022/02/01 09:27:46;;;;;;;8.15;2.60;;;10.50;72.10;;;;;;5033329;28;20013;-50
2022/02/01 09:30:14;;;;;;;7.45;3.30;;;10.60;72.20;;;;;;5033550;28;20025;-52
2022/02/01 09:32:40;;;;;;;8.02;3.05;;;10.50;72.30;;;;;;5031815;28;20021;-49
2022/02/01 09:35:06;;;;;;;9.32;3.17;;;10.40;72.80;;;;;;5033113;28;20495;-50
2022/02/01 09:37:32;;;;;;;5.45;2.72;;;10.30;73.30;;;;;;5032299;28;20017;-51
2022/02/01 09:39:58;;;;;;;5.35;3.00;;;10.30;73.50;;;;;;5033269;28;20024;-52
2022/02/01 09:42:27;;;;;;;6.60;3.17;;;10.60;73.40;;;;;;5032996;28;20018;-54
2022/02/01 09:44:56;;;;;;;12.85;3.50;;;10.70;72.30;;;;;;5032929;28;20441;-53
2022/02/01 09:47:35;;;;;;;13.85;3.33;;;11.00;71.70;;;;;;5032919;28;20064;-54
2022/02/01 09:50:02;;;;;;;10.07;3.38;;;10.80;71.70;;;;;;5032722;28;20067;-53
2022/02/01 09:52:28;;;;;;;7.18;3.22;;;10.70;72.70;;;;;;5032453;28;20484;-51
2022/02/01 09:54:54;;;;;;;7.38;3.35;;;10.70;72.20;;;;;;5032642;28;20033;-51
2022/02/01 09:57:23;;;;;;;6.68;3.15;;;10.70;72.50;;;;;;5032785;28;20013;-52
2022/02/01 09:59:57;;;;;;;8.63;3.55;;;10.70;73.00;;;;;;5031109;28;20021;-49
2022/02/01 10:02:37;;;;;;;14.98;3.70;;;10.70;72.70;;;;;;5030580;28;20013;-49
2022/02/01 10:05:08;;;;;;;11.95;4.13;;;10.70;72.90;;;;;;5031535;28;20021;-50
2022/02/01 10:07:44;;;;;;;14.77;4.40;;;10.60;73.30;;;;;;5031898;28;20025;-50
2022/02/01 10:10:11;;;;;;;9.60;3.95;;;10.60;73.90;;;;;;5032204;28;20116;-50
2022/02/01 10:12:40;;;;;;;9.68;3.80;;;10.70;74.00;;;;;;5031019;28;20034;-53
2022/02/01 10:15:17;;;;;;;11.95;3.90;;;12.50;69.90;;;;;;5032804;28;20495;-51
2022/02/01 10:17:47;;;;;;;11.15;4.07;;;12.70;66.40;;;;;;5031249;28;20457;-52
2022/02/01 10:20:47;;;;;;;11.38;3.65;;;12.70;67.30;;;;;;5109576;27;20369;-51
2022/02/01 10:23:26;;;;;;;9.85;4.05;;;12.50;66.90;;;;;;5108942;28;20023;-49
2022/02/01 10:26:01;;;;;;;8.90;3.88;;;12.80;67.00;;;;;;5110013;28;20011;-52
2022/02/01 10:28:39;;;;;;;11.88;4.35;;;12.70;67.10;;;;;;5109870;28;20097;-50
2022/02/01 10:31:13;;;;;;;10.55;3.67;;;12.90;66.60;;;;;;5109461;28;20063;-49
2022/02/01 10:36:09;;;;;;;10.82;4.50;;;12.90;66.10;;;;;;5110337;28;20020;-55
2022/02/01 10:38:35;;;;;;;9.23;3.95;;;12.40;67.30;;;;;;5109728;28;20032;-49
2022/02/01 10:41:01;;;;;;;7.90;4.18;;;12.60;68.10;;;;;;5109918;28;20012;-51
2022/02/01 10:43:31;;;;;;;11.43;4.25;;;12.30;68.10;;;;;;5110298;28;20067;-52
2022/02/01 10:46:04;;;;;;;9.15;4.15;;;12.30;68.90;;;;;;5110138;28;20004;-54
2022/02/01 10:48:30;;;;;;;5.15;3.42;;;12.20;69.30;;;;;;5110314;28;20062;-56
2022/02/01 10:51:03;;;;;;;7.30;3.58;;;12.00;69.90;;;;;;5109810;28;20024;-52
2022/02/01 10:53:32;;;;;;;9.27;4.40;;;12.00;70.40;;;;;;5109288;28;20016;-54
2022/02/01 10:55:59;;;;;;;10.07;3.63;;;11.80;71.00;;;;;;5109413;28;20074;-55
2022/02/01 10:58:25;;;;;;;13.82;3.22;;;12.40;70.40;;;;;;5109891;28;20024;-55
2022/02/01 11:00:51;;;;;;;19.77;3.30;;;13.20;67.60;;;;;;5109869;28;20061;-56
2022/02/01 11:03:17;;;;;;;8.13;2.15;;;14.20;64.20;;;;;;5110270;28;20088;-55
2022/02/01 11:05:47;;;;;;;7.50;2.25;;;15.00;61.20;;;;;;5110224;28;20077;-56
2022/02/01 11:08:14;;;;;;;8.03;2.07;;;15.70;58.80;;;;;;5109958;28;20077;-59
2022/02/01 11:10:46;;;;;;;8.02;2.20;;;16.20;57.10;;;;;;5109663;28;20046;-59
2022/02/01 11:13:11;;;;;;;6.90;1.88;;;16.60;55.60;;;;;;5109587;28;20458;-59
2022/02/01 11:15:38;;;;;;;10.43;2.38;;;16.90;54.60;;;;;;5109389;28;20019;-59
2022/02/01 11:18:11;;;;;;;7.40;1.90;;;17.20;53.50;;;;;;5109455;28;20084;-61
2022/02/01 11:20:37;;;;;;;5.93;1.80;;;17.50;52.70;;;;;;5109273;28;20069;-59
2022/02/01 11:23:07;;;;;;;4.53;1.85;;;17.70;52.00;;;;;;5107469;28;20115;-59
2022/02/01 11:25:47;;;;;;;6.40;1.65;;;17.80;51.30;;;;;;5109083;28;20034;-58
2022/02/01 11:31:11;;;;;;;3.97;1.75;;;18.20;50.40;;;;;;5099139;28;20016;-57
2022/02/01 11:33:38;;;;;;;7.70;2.50;;;18.30;50.00;;;;;;5095563;28;20113;-58
2022/02/01 11:36:06;;;;;;;8.68;2.10;;;17.50;51.30;;;;;;5095287;28;20008;-57
2022/02/01 11:38:31;;;;;;;7.13;2.17;;;17.80;51.20;;;;;;5095549;28;20031;-57
2022/02/01 11:41:06;;;;;;;9.35;2.20;;;18.00;50.60;;;;;;5094158;28;20450;-60
2022/02/01 11:43:34;;;;;;;8.68;2.50;;;18.20;50.00;;;;;;5095200;28;20065;-57
2022/02/01 11:46:08;;;;;;;4.22;1.80;;;18.40;49.50;;;;;;5093384;28;20110;-57
2022/02/01 11:48:38;;;;;;;4.72;1.90;;;18.60;49.10;;;;;;5093308;28;20034;-57
2022/02/01 11:51:10;;;;;;;7.75;2.88;;;18.80;48.60;;;;;;5093134;28;20114;-57
2022/02/01 11:53:41;;;;;;;10.93;3.33;;;18.70;48.40;;;;;;5092986;28;20084;-59
2022/02/01 11:56:07;;;;;;;13.32;3.70;;;17.10;52.50;;;;;;5093498;28;20016;-54
2022/02/01 11:58:45;;;;;;;10.90;3.67;;;16.50;54.40;;;;;;5094642;28;20024;-55
2022/02/01 12:01:34;;;;;;;12.68;3.78;;;15.90;55.90;;;;;;5093341;28;20054;-58
2022/02/01 12:04:05;;;;;;;14.38;3.30;;;15.80;56.50;;;;;;5094309;28;20434;-57
2022/02/01 12:06:46;;;;;;;12.38;3.50;;;15.70;57.40;;;;;;5093009;28;20077;-59
2022/02/01 12:09:19;;;;;;;8.93;3.15;;;15.30;58.10;;;;;;5092956;28;20425;-57
2022/02/01 12:11:45;;;;;;;12.63;3.67;;;15.20;58.70;;;;;;5094370;28;20101;-57
2022/02/01 12:14:11;;;;;;;13.00;3.40;;;15.40;58.50;;;;;;5092319;28;20061;-58
2022/02/01 12:16:37;;;;;;;10.77;2.95;;;16.10;57.40;;;;;;5094039;28;20088;-53
2022/02/01 12:19:06;;;;;;;10.70;3.38;;;16.90;55.80;;;;;;5091728;28;20032;-56
2022/02/01 12:21:49;;;;;;;15.02;3.70;;;17.50;53.80;;;;;;5091525;28;20008;-56
2022/02/01 12:24:15;;;;;;;13.32;4.07;;;16.70;54.20;;;;;;5092762;28;20170;-57
2022/02/01 12:26:42;;;;;;;17.27;3.40;;;16.20;56.00;;;;;;5093017;28;20036;-58
2022/02/01 12:29:10;;;;;;;14.13;2.78;;;16.00;56.80;;;;;;5092422;28;20024;-59
2022/02/01 12:31:38;;;;;;;19.60;3.85;;;16.60;56.40;;;;;;5091247;28;20051;-59
2022/02/01 12:34:05;;;;;;;12.80;3.70;;;17.10;54.80;;;;;;5093041;28;20023;-60
2022/02/01 12:36:36;;;;;;;18.98;3.25;;;17.40;54.00;;;;;;5074422;28;20024;-60
2022/02/01 12:39:14;;;;;;;12.27;3.63;;;17.60;54.10;;;;;;5075074;28;20085;-61
2022/02/01 12:41:43;;;;;;;15.75;3.67;;;17.50;53.20;;;;;;5091200;28;20020;-59
2022/02/01 12:46:51;;;;;;;12.13;3.00;;;17.70;53.10;;;;;;5093413;28;20032;-60
2022/02/01 12:49:17;;;;;;;15.45;2.97;;;17.70;53.00;;;;;;5093760;28;20053;-58
2022/02/01 12:51:47;;;;;;;12.07;3.22;;;17.80;53.00;;;;;;5092675;28;20016;-59
2022/02/01 12:54:32;;;;;;;13.73;3.13;;;18.10;52.60;;;;;;5092936;28;20095;-59
2022/02/01 12:57:15;;;;;;;9.85;2.90;;;18.20;52.30;;;;;;5092884;28;20012;-59
2022/02/01 12:59:49;;;;;;;13.80;2.92;;;18.30;52.10;;;;;;5092970;28;20099;-61
2022/02/01 13:02:17;;;;;;;14.70;3.83;;;18.40;52.40;;;;;;5094470;28;20020;-60
2022/02/01 13:04:43;;;;;;;14.20;2.45;;;18.50;51.90;;;;;;5093317;28;20024;-59
2022/02/01 13:07:30;;;;;;;12.68;2.85;;;18.50;51.50;;;;;;5094222;28;20008;-59
2022/02/01 13:15:29;;;;;;;15.25;3.00;;;18.40;51.60;;;;;;5095983;28;20123;-60
2022/02/01 13:20:42;;;;;;;17.27;3.55;;;16.10;55.60;;;;;;5094856;28;20048;-65
2022/02/01 13:23:08;;;;;;;12.13;2.90;;;16.50;56.20;;;;;;5096752;28;20020;-66
2022/02/01 13:25:41;;;;;;;13.75;3.38;;;16.30;56.00;;;;;;5092083;28;20028;-67
2022/02/01 13:28:10;;;;;;;11.63;3.05;;;16.50;55.80;;;;;;5091865;28;20048;-59
2022/02/01 13:30:37;;;;;;;12.10;2.90;;;16.50;55.70;;;;;;5092513;28;20012;-57
2022/02/01 13:33:21;;;;;;;10.43;2.67;;;16.20;55.70;;;;;;5093275;28;20057;-57
2022/02/01 13:35:53;;;;;;;11.82;3.05;;;16.40;56.40;;;;;;5094357;28;20053;-60
2022/02/01 13:38:22;;;;;;;10.52;3.17;;;16.30;56.50;;;;;;5095630;28;20062;-54
2022/02/01 13:40:48;;;;;;;13.52;2.72;;;16.50;56.50;;;;;;5094698;28;20016;-59
2022/02/01 13:43:22;;;;;;;11.73;3.45;;;16.20;56.90;;;;;;5092433;28;20012;-58
2022/02/01 13:45:48;;;;;;;9.70;2.50;;;16.40;56.80;;;;;;5093588;28;20039;-58
2022/02/01 13:48:20;;;;;;;7.65;2.65;;;16.50;56.30;;;;;;5091422;28;20493;-59
2022/02/01 13:50:47;;;;;;;7.40;2.40;;;16.40;56.50;;;;;;5093205;28;20020;-59
2022/02/01 13:53:13;;;;;;;10.48;2.65;;;16.50;56.40;;;;;;5092840;28;20038;-57
2022/02/01 13:55:40;;;;;;;8.18;2.25;;;16.40;56.30;;;;;;5092625;28;20024;-60
2022/02/01 13:58:08;;;;;;;10.00;3.08;;;16.20;56.80;;;;;;5091115;28;20083;-59
2022/02/01 14:00:40;;;;;;;10.70;2.50;;;16.00;57.00;;;;;;5092637;28;20012;-58
2022/02/01 14:03:37;;;;;;;;;;;16.30;56.60;;;;;;5092891;28;20024;-55
2022/02/01 14:06:11;;;;;;;9.00;2.35;;;16.10;57.00;;;;;;5092234;28;20351;-57
2022/02/01 14:08:49;;;;;;;9.10;2.30;;;16.20;57.00;;;;;;5092454;28;20049;-54
2022/02/01 14:11:47;;;;;;;9.65;2.97;;;16.10;57.40;;;;;;5091760;28;20474;-63
2022/02/01 14:35:41;;;;;;;6.50;2.05;;;19.30;49.60;;;;;;5082317;28;20028;-59
2022/02/01 14:44:15;;;;;;;8.10;2.03;;;19.80;48.20;;;;;;5094301;28;20505;-60
2022/02/01 14:46:41;;;;;;;7.97;2.15;;;19.90;47.90;;;;;;5092749;28;20024;-57
2022/02/01 14:49:06;;;;;;;5.72;1.80;;;19.90;47.70;;;;;;5092318;28;20331;-57
2022/02/01 14:51:32;;;;;;;6.20;1.90;;;19.90;47.60;;;;;;5093397;28;20484;-57
2022/02/01 14:53:58;;;;;;;6.47;1.88;;;20.00;47.60;;;;;;5093783;28;20028;-57
2022/02/01 14:56:28;;;;;;;5.40;1.77;;;20.00;47.60;;;;;;5093223;28;20074;-58
2022/02/01 15:04:49;;;;;;;4.63;2.03;;;19.90;47.50;;;;;;5091948;28;20402;-57
2022/02/01 15:07:19;;;;;;;4.97;1.90;;;19.90;47.50;;;;;;5095610;28;20024;-53
2022/02/01 15:12:49;;;;;;;4.80;1.70;;;19.90;47.50;;;;;;5096190;28;20073;-56